sensor_id;sensor_type;location;lat;lon;timestamp;P1;durP1;ratioP1;P2;durP2;ratioP2
54123;SDS011;55741;53.252;5.788;2022-08-18T00:02:25;18.10;;;9.23;;
54123;SDS011;55741;53.252;5.788;2022-08-18T00:04:50;19.27;;;10.23;;
54123;SDS011;55741;53.252;5.788;2022-08-18T00:07:18;22.10;;;11.00;;
54123;SDS011;55741;53.252;5.788;2022-08-18T00:09:52;22.15;;;10.05;;
54123;SDS011;55741;53.252;5.788;2022-08-18T00:12:20;18.67;;;9.82;;
54123;SDS011;55741;53.252;5.788;2022-08-18T00:14:49;20.98;;;10.00;;
54123;SDS011;55741;53.252;5.788;2022-08-18T00:17:16;20.05;;;10.25;;
54123;SDS011;55741;53.252;5.788;2022-08-18T00:19:42;16.40;;;9.55;;
54123;SDS011;55741;53.252;5.788;2022-08-18T00:22:10;16.10;;;9.45;;
54123;SDS011;55741;53.252;5.788;2022-08-18T00:24:37;16.38;;;10.07;;
54123;SDS011;55741;53.252;5.788;2022-08-18T00:27:03;18.55;;;8.90;;
54123;SDS011;55741;53.252;5.788;2022-08-18T00:29:30;19.60;;;9.82;;
54123;SDS011;55741;53.252;5.788;2022-08-18T00:31:56;21.25;;;7.95;;
54123;SDS011;55741;53.252;5.788;2022-08-18T00:34:22;14.57;;;8.73;;
54123;SDS011;55741;53.252;5.788;2022-08-18T00:36:48;23.77;;;9.32;;
54123;SDS011;55741;53.252;5.788;2022-08-18T00:39:14;17.27;;;8.77;;
54123;SDS011;55741;53.252;5.788;2022-08-18T00:41:40;19.20;;;9.77;;
54123;SDS011;55741;53.252;5.788;2022-08-18T00:44:06;16.20;;;8.20;;
54123;SDS011;55741;53.252;5.788;2022-08-18T00:46:34;16.90;;;8.75;;
54123;SDS011;55741;53.252;5.788;2022-08-18T00:49:01;15.63;;;9.23;;
54123;SDS011;55741;53.252;5.788;2022-08-18T00:51:29;24.98;;;9.10;;
54123;SDS011;55741;53.252;5.788;2022-08-18T00:54:04;17.33;;;8.27;;
54123;SDS011;55741;53.252;5.788;2022-08-18T00:56:36;16.80;;;9.25;;
54123;SDS011;55741;53.252;5.788;2022-08-18T00:59:23;14.02;;;8.40;;
54123;SDS011;55741;53.252;5.788;2022-08-18T01:02:05;22.20;;;9.23;;
54123;SDS011;55741;53.252;5.788;2022-08-18T01:04:40;12.00;;;8.13;;
54123;SDS011;55741;53.252;5.788;2022-08-18T01:07:21;16.75;;;8.18;;
54123;SDS011;55741;53.252;5.788;2022-08-18T01:09:54;17.00;;;9.40;;
54123;SDS011;55741;53.252;5.788;2022-08-18T01:12:24;14.20;;;8.10;;
54123;SDS011;55741;53.252;5.788;2022-08-18T01:14:51;20.52;;;8.73;;
54123;SDS011;55741;53.252;5.788;2022-08-18T01:17:18;15.50;;;8.05;;
54123;SDS011;55741;53.252;5.788;2022-08-18T01:20:03;22.27;;;9.67;;
54123;SDS011;55741;53.252;5.788;2022-08-18T01:25:32;18.67;;;8.90;;
54123;SDS011;55741;53.252;5.788;2022-08-18T01:28:16;19.85;;;9.25;;
54123;SDS011;55741;53.252;5.788;2022-08-18T01:30:46;15.32;;;9.23;;
54123;SDS011;55741;53.252;5.788;2022-08-18T01:33:15;19.50;;;9.45;;
54123;SDS011;55741;53.252;5.788;2022-08-18T01:35:42;14.40;;;9.07;;
54123;SDS011;55741;53.252;5.788;2022-08-18T01:38:16;16.95;;;8.27;;
54123;SDS011;55741;53.252;5.788;2022-08-18T01:40:44;15.80;;;8.30;;
54123;SDS011;55741;53.252;5.788;2022-08-18T01:43:11;23.50;;;9.05;;
54123;SDS011;55741;53.252;5.788;2022-08-18T01:45:38;13.90;;;7.60;;
54123;SDS011;55741;53.252;5.788;2022-08-18T01:48:06;14.52;;;7.35;;
54123;SDS011;55741;53.252;5.788;2022-08-18T01:50:33;11.02;;;7.22;;
54123;SDS011;55741;53.252;5.788;2022-08-18T01:53:01;15.90;;;7.63;;
54123;SDS011;55741;53.252;5.788;2022-08-18T01:55:30;24.80;;;8.60;;
54123;SDS011;55741;53.252;5.788;2022-08-18T01:57:58;21.42;;;8.55;;
54123;SDS011;55741;53.252;5.788;2022-08-18T02:00:25;18.15;;;8.30;;
54123;SDS011;55741;53.252;5.788;2022-08-18T02:02:52;21.23;;;8.70;;
54123;SDS011;55741;53.252;5.788;2022-08-18T02:05:21;23.77;;;8.80;;
54123;SDS011;55741;53.252;5.788;2022-08-18T02:07:55;20.17;;;8.93;;
54123;SDS011;55741;53.252;5.788;2022-08-18T02:10:22;15.23;;;8.48;;
54123;SDS011;55741;53.252;5.788;2022-08-18T02:12:47;18.52;;;8.15;;
54123;SDS011;55741;53.252;5.788;2022-08-18T02:15:13;19.95;;;8.73;;
54123;SDS011;55741;53.252;5.788;2022-08-18T02:17:40;20.27;;;9.20;;
54123;SDS011;55741;53.252;5.788;2022-08-18T02:20:09;17.90;;;9.02;;
54123;SDS011;55741;53.252;5.788;2022-08-18T02:22:36;16.00;;;8.80;;
54123;SDS011;55741;53.252;5.788;2022-08-18T02:25:05;18.80;;;8.43;;
54123;SDS011;55741;53.252;5.788;2022-08-18T02:27:32;20.75;;;8.48;;
54123;SDS011;55741;53.252;5.788;2022-08-18T02:29:59;21.35;;;8.73;;
54123;SDS011;55741;53.252;5.788;2022-08-18T02:32:26;14.90;;;6.90;;
54123;SDS011;55741;53.252;5.788;2022-08-18T02:34:53;20.25;;;8.00;;
54123;SDS011;55741;53.252;5.788;2022-08-18T02:37:19;21.88;;;9.38;;
54123;SDS011;55741;53.252;5.788;2022-08-18T02:39:46;17.25;;;8.13;;
54123;SDS011;55741;53.252;5.788;2022-08-18T02:42:11;18.80;;;7.95;;
54123;SDS011;55741;53.252;5.788;2022-08-18T02:44:38;23.08;;;8.43;;
54123;SDS011;55741;53.252;5.788;2022-08-18T02:47:05;20.08;;;8.40;;
54123;SDS011;55741;53.252;5.788;2022-08-18T02:49:31;19.58;;;7.57;;
54123;SDS011;55741;53.252;5.788;2022-08-18T02:51:57;14.43;;;7.47;;
54123;SDS011;55741;53.252;5.788;2022-08-18T02:54:23;16.05;;;8.20;;
54123;SDS011;55741;53.252;5.788;2022-08-18T02:56:50;14.73;;;7.68;;
54123;SDS011;55741;53.252;5.788;2022-08-18T02:59:18;15.73;;;7.38;;
54123;SDS011;55741;53.252;5.788;2022-08-18T03:01:49;21.48;;;7.50;;
54123;SDS011;55741;53.252;5.788;2022-08-18T03:04:18;14.63;;;7.90;;
54123;SDS011;55741;53.252;5.788;2022-08-18T03:06:47;14.52;;;6.75;;
54123;SDS011;55741;53.252;5.788;2022-08-18T03:09:14;13.07;;;6.97;;
54123;SDS011;55741;53.252;5.788;2022-08-18T03:11:41;12.70;;;7.57;;
54123;SDS011;55741;53.252;5.788;2022-08-18T03:14:08;19.80;;;6.63;;
54123;SDS011;55741;53.252;5.788;2022-08-18T03:16:34;11.43;;;6.90;;
54123;SDS011;55741;53.252;5.788;2022-08-18T03:19:03;10.30;;;6.93;;
54123;SDS011;55741;53.252;5.788;2022-08-18T03:21:29;13.95;;;6.50;;
54123;SDS011;55741;53.252;5.788;2022-08-18T03:23:59;12.43;;;6.82;;
54123;SDS011;55741;53.252;5.788;2022-08-18T03:26:29;13.95;;;6.32;;
54123;SDS011;55741;53.252;5.788;2022-08-18T03:28:57;11.23;;;5.65;;
54123;SDS011;55741;53.252;5.788;2022-08-18T03:31:24;11.40;;;6.82;;
54123;SDS011;55741;53.252;5.788;2022-08-18T03:33:53;11.85;;;6.65;;
54123;SDS011;55741;53.252;5.788;2022-08-18T03:36:24;11.43;;;6.68;;
54123;SDS011;55741;53.252;5.788;2022-08-18T03:38:52;14.52;;;7.03;;
54123;SDS011;55741;53.252;5.788;2022-08-18T03:41:20;13.98;;;6.40;;
54123;SDS011;55741;53.252;5.788;2022-08-18T03:43:48;15.70;;;6.65;;
54123;SDS011;55741;53.252;5.788;2022-08-18T03:46:15;12.32;;;7.35;;
54123;SDS011;55741;53.252;5.788;2022-08-18T03:48:48;11.85;;;7.07;;
54123;SDS011;55741;53.252;5.788;2022-08-18T03:51:16;16.15;;;7.90;;
54123;SDS011;55741;53.252;5.788;2022-08-18T03:53:56;12.40;;;7.50;;
54123;SDS011;55741;53.252;5.788;2022-08-18T03:56:25;12.63;;;8.07;;
54123;SDS011;55741;53.252;5.788;2022-08-18T03:58:54;14.13;;;8.05;;
54123;SDS011;55741;53.252;5.788;2022-08-18T04:01:24;11.35;;;8.25;;
54123;SDS011;55741;53.252;5.788;2022-08-18T04:04:00;15.73;;;8.90;;
54123;SDS011;55741;53.252;5.788;2022-08-18T04:06:29;14.93;;;9.15;;
54123;SDS011;55741;53.252;5.788;2022-08-18T04:08:59;13.32;;;9.02;;
54123;SDS011;55741;53.252;5.788;2022-08-18T04:11:29;16.55;;;9.45;;
54123;SDS011;55741;53.252;5.788;2022-08-18T04:13:56;16.23;;;9.05;;
54123;SDS011;55741;53.252;5.788;2022-08-18T04:16:28;14.82;;;10.05;;
54123;SDS011;55741;53.252;5.788;2022-08-18T04:18:59;11.23;;;8.73;;
54123;SDS011;55741;53.252;5.788;2022-08-18T04:21:33;13.52;;;8.80;;
54123;SDS011;55741;53.252;5.788;2022-08-18T04:24:01;13.40;;;9.63;;
54123;SDS011;55741;53.252;5.788;2022-08-18T04:26:31;18.60;;;10.35;;
54123;SDS011;55741;53.252;5.788;2022-08-18T04:28:59;15.98;;;9.93;;
54123;SDS011;55741;53.252;5.788;2022-08-18T04:31:26;13.45;;;8.00;;
54123;SDS011;55741;53.252;5.788;2022-08-18T04:33:54;12.50;;;6.82;;
54123;SDS011;55741;53.252;5.788;2022-08-18T04:36:21;15.55;;;5.65;;
54123;SDS011;55741;53.252;5.788;2022-08-18T04:38:47;10.27;;;5.10;;
54123;SDS011;55741;53.252;5.788;2022-08-18T04:41:14;16.05;;;6.50;;
54123;SDS011;55741;53.252;5.788;2022-08-18T04:43:42;11.88;;;4.88;;
54123;SDS011;55741;53.252;5.788;2022-08-18T04:46:08;17.50;;;5.72;;
54123;SDS011;55741;53.252;5.788;2022-08-18T04:48:36;13.35;;;5.13;;
54123;SDS011;55741;53.252;5.788;2022-08-18T04:51:05;9.75;;;4.70;;
54123;SDS011;55741;53.252;5.788;2022-08-18T04:53:35;13.43;;;5.45;;
54123;SDS011;55741;53.252;5.788;2022-08-18T04:56:25;14.93;;;4.75;;
54123;SDS011;55741;53.252;5.788;2022-08-18T04:58:59;10.25;;;4.50;;
54123;SDS011;55741;53.252;5.788;2022-08-18T05:01:33;17.77;;;5.13;;
54123;SDS011;55741;53.252;5.788;2022-08-18T05:04:04;19.92;;;5.63;;
54123;SDS011;55741;53.252;5.788;2022-08-18T05:06:30;18.52;;;5.85;;
54123;SDS011;55741;53.252;5.788;2022-08-18T05:08:58;18.13;;;5.30;;
54123;SDS011;55741;53.252;5.788;2022-08-18T05:11:27;15.93;;;5.10;;
54123;SDS011;55741;53.252;5.788;2022-08-18T05:13:59;17.33;;;6.22;;
54123;SDS011;55741;53.252;5.788;2022-08-18T05:16:27;16.65;;;5.70;;
54123;SDS011;55741;53.252;5.788;2022-08-18T05:18:54;19.27;;;5.53;;
54123;SDS011;55741;53.252;5.788;2022-08-18T05:21:21;17.05;;;5.38;;
54123;SDS011;55741;53.252;5.788;2022-08-18T05:23:49;23.05;;;6.30;;
54123;SDS011;55741;53.252;5.788;2022-08-18T05:26:16;15.73;;;5.45;;
54123;SDS011;55741;53.252;5.788;2022-08-18T05:28:45;16.25;;;5.97;;
54123;SDS011;55741;53.252;5.788;2022-08-18T05:31:12;16.10;;;5.45;;
54123;SDS011;55741;53.252;5.788;2022-08-18T05:33:49;15.73;;;4.30;;
54123;SDS011;55741;53.252;5.788;2022-08-18T05:44:35;12.20;;;4.50;;
54123;SDS011;55741;53.252;5.788;2022-08-18T05:49:51;14.90;;;4.32;;
54123;SDS011;55741;53.252;5.788;2022-08-18T05:55:00;12.73;;;3.70;;
54123;SDS011;55741;53.252;5.788;2022-08-18T05:57:51;10.60;;;4.10;;
54123;SDS011;55741;53.252;5.788;2022-08-18T06:00:26;10.02;;;4.18;;
54123;SDS011;55741;53.252;5.788;2022-08-18T06:05:40;8.20;;;3.58;;
54123;SDS011;55741;53.252;5.788;2022-08-18T06:08:11;8.18;;;3.17;;
54123;SDS011;55741;53.252;5.788;2022-08-18T06:10:40;10.02;;;3.70;;
54123;SDS011;55741;53.252;5.788;2022-08-18T06:13:10;9.00;;;3.45;;
54123;SDS011;55741;53.252;5.788;2022-08-18T06:26:49;12.85;;;4.15;;
54123;SDS011;55741;53.252;5.788;2022-08-18T06:37:34;7.35;;;3.00;;
54123;SDS011;55741;53.252;5.788;2022-08-18T06:40:28;8.38;;;4.00;;
54123;SDS011;55741;53.252;5.788;2022-08-18T06:42:53;9.82;;;4.00;;
54123;SDS011;55741;53.252;5.788;2022-08-18T06:45:21;11.02;;;4.47;;
54123;SDS011;55741;53.252;5.788;2022-08-18T06:50:55;10.70;;;5.25;;
54123;SDS011;55741;53.252;5.788;2022-08-18T06:53:48;13.95;;;5.32;;
54123;SDS011;55741;53.252;5.788;2022-08-18T07:01:46;10.07;;;4.95;;
54123;SDS011;55741;53.252;5.788;2022-08-18T07:04:37;8.82;;;3.72;;
54123;SDS011;55741;53.252;5.788;2022-08-18T07:07:15;10.50;;;3.22;;
54123;SDS011;55741;53.252;5.788;2022-08-18T07:09:44;6.78;;;3.00;;
54123;SDS011;55741;53.252;5.788;2022-08-18T07:12:17;6.25;;;3.00;;
54123;SDS011;55741;53.252;5.788;2022-08-18T07:14:48;5.78;;;2.88;;
54123;SDS011;55741;53.252;5.788;2022-08-18T07:17:21;6.93;;;2.97;;
54123;SDS011;55741;53.252;5.788;2022-08-18T07:19:58;11.57;;;3.47;;
54123;SDS011;55741;53.252;5.788;2022-08-18T07:22:53;5.60;;;2.83;;
54123;SDS011;55741;53.252;5.788;2022-08-18T07:25:26;6.38;;;2.85;;
54123;SDS011;55741;53.252;5.788;2022-08-18T07:27:54;5.45;;;2.40;;
54123;SDS011;55741;53.252;5.788;2022-08-18T07:32:50;6.35;;;2.85;;
54123;SDS011;55741;53.252;5.788;2022-08-18T07:35:21;9.45;;;3.47;;
54123;SDS011;55741;53.252;5.788;2022-08-18T07:38:12;8.60;;;3.53;;
54123;SDS011;55741;53.252;5.788;2022-08-18T07:40:47;9.43;;;2.55;;
54123;SDS011;55741;53.252;5.788;2022-08-18T07:48:55;7.43;;;2.80;;
54123;SDS011;55741;53.252;5.788;2022-08-18T07:57:02;12.25;;;3.05;;
54123;SDS011;55741;53.252;5.788;2022-08-18T07:59:41;7.03;;;2.65;;
54123;SDS011;55741;53.252;5.788;2022-08-18T08:07:48;5.80;;;2.17;;
54123;SDS011;55741;53.252;5.788;2022-08-18T08:10:31;6.75;;;2.28;;
54123;SDS011;55741;53.252;5.788;2022-08-18T08:13:15;6.13;;;2.05;;
54123;SDS011;55741;53.252;5.788;2022-08-18T08:16:19;7.07;;;2.25;;
54123;SDS011;55741;53.252;5.788;2022-08-18T08:19:10;4.18;;;1.80;;
54123;SDS011;55741;53.252;5.788;2022-08-18T08:22:00;7.05;;;2.20;;
54123;SDS011;55741;53.252;5.788;2022-08-18T08:27:08;7.45;;;2.45;;
54123;SDS011;55741;53.252;5.788;2022-08-18T08:30:05;5.40;;;2.30;;
54123;SDS011;55741;53.252;5.788;2022-08-18T08:32:36;4.95;;;2.03;;
54123;SDS011;55741;53.252;5.788;2022-08-18T08:35:12;6.22;;;2.20;;
54123;SDS011;55741;53.252;5.788;2022-08-18T08:37:45;4.45;;;2.00;;
54123;SDS011;55741;53.252;5.788;2022-08-18T08:40:25;6.57;;;2.47;;
54123;SDS011;55741;53.252;5.788;2022-08-18T08:43:14;4.25;;;1.95;;
54123;SDS011;55741;53.252;5.788;2022-08-18T08:45:46;9.60;;;2.33;;
54123;SDS011;55741;53.252;5.788;2022-08-18T08:48:22;5.82;;;2.05;;
54123;SDS011;55741;53.252;5.788;2022-08-18T08:50:59;7.80;;;2.00;;
54123;SDS011;55741;53.252;5.788;2022-08-18T08:53:33;6.93;;;2.10;;
54123;SDS011;55741;53.252;5.788;2022-08-18T08:56:07;3.67;;;2.10;;
54123;SDS011;55741;53.252;5.788;2022-08-18T08:58:39;7.53;;;2.20;;
54123;SDS011;55741;53.252;5.788;2022-08-18T09:01:36;4.32;;;1.77;;
54123;SDS011;55741;53.252;5.788;2022-08-18T09:09:57;9.15;;;2.05;;
54123;SDS011;55741;53.252;5.788;2022-08-18T09:15:53;5.22;;;1.88;;
54123;SDS011;55741;53.252;5.788;2022-08-18T09:21:23;6.03;;;1.88;;
54123;SDS011;55741;53.252;5.788;2022-08-18T09:24:13;6.90;;;1.92;;
54123;SDS011;55741;53.252;5.788;2022-08-18T09:26:50;4.90;;;1.95;;
54123;SDS011;55741;53.252;5.788;2022-08-18T09:34:53;7.55;;;1.92;;
54123;SDS011;55741;53.252;5.788;2022-08-18T09:40:44;4.60;;;1.60;;
54123;SDS011;55741;53.252;5.788;2022-08-18T09:46:02;5.45;;;2.00;;
54123;SDS011;55741;53.252;5.788;2022-08-18T09:48:33;5.55;;;1.88;;
54123;SDS011;55741;53.252;5.788;2022-08-18T09:54:09;6.07;;;1.92;;
54123;SDS011;55741;53.252;5.788;2022-08-18T10:02:02;6.05;;;2.03;;
54123;SDS011;55741;53.252;5.788;2022-08-18T10:04:31;6.80;;;2.00;;
54123;SDS011;55741;53.252;5.788;2022-08-18T10:10:07;4.30;;;1.70;;
54123;SDS011;55741;53.252;5.788;2022-08-18T10:19:09;3.95;;;1.75;;
54123;SDS011;55741;53.252;5.788;2022-08-18T10:24:20;3.17;;;1.40;;
54123;SDS011;55741;53.252;5.788;2022-08-18T10:29:56;3.22;;;1.40;;
54123;SDS011;55741;53.252;5.788;2022-08-18T10:34:47;2.75;;;1.42;;
54123;SDS011;55741;53.252;5.788;2022-08-18T10:39:59;3.08;;;1.52;;
54123;SDS011;55741;53.252;5.788;2022-08-18T10:42:40;3.10;;;1.35;;
54123;SDS011;55741;53.252;5.788;2022-08-18T10:45:28;2.95;;;1.20;;
54123;SDS011;55741;53.252;5.788;2022-08-18T10:50:43;3.20;;;1.38;;
54123;SDS011;55741;53.252;5.788;2022-08-18T10:53:36;4.05;;;1.65;;
54123;SDS011;55741;53.252;5.788;2022-08-18T10:56:30;4.50;;;1.48;;
54123;SDS011;55741;53.252;5.788;2022-08-18T11:04:25;3.08;;;1.40;;
54123;SDS011;55741;53.252;5.788;2022-08-18T11:06:57;3.05;;;1.40;;
54123;SDS011;55741;53.252;5.788;2022-08-18T11:09:29;4.40;;;1.38;;
54123;SDS011;55741;53.252;5.788;2022-08-18T11:11:57;4.03;;;1.60;;
54123;SDS011;55741;53.252;5.788;2022-08-18T11:19:52;2.92;;;1.80;;
54123;SDS011;55741;53.252;5.788;2022-08-18T11:22:21;4.75;;;1.50;;
54123;SDS011;55741;53.252;5.788;2022-08-18T11:24:47;3.03;;;1.67;;
54123;SDS011;55741;53.252;5.788;2022-08-18T11:30:12;2.83;;;1.60;;
54123;SDS011;55741;53.252;5.788;2022-08-18T11:32:39;4.03;;;1.67;;
54123;SDS011;55741;53.252;5.788;2022-08-18T11:40:09;2.90;;;1.73;;
54123;SDS011;55741;53.252;5.788;2022-08-18T11:42:37;5.55;;;2.00;;
54123;SDS011;55741;53.252;5.788;2022-08-18T11:47:58;3.20;;;1.70;;
54123;SDS011;55741;53.252;5.788;2022-08-18T11:50:25;4.57;;;1.80;;
54123;SDS011;55741;53.252;5.788;2022-08-18T11:52:53;6.95;;;2.13;;
54123;SDS011;55741;53.252;5.788;2022-08-18T11:55:28;2.90;;;1.67;;
54123;SDS011;55741;53.252;5.788;2022-08-18T11:57:57;2.72;;;1.48;;
54123;SDS011;55741;53.252;5.788;2022-08-18T12:06:24;4.32;;;1.95;;
54123;SDS011;55741;53.252;5.788;2022-08-18T12:09:03;2.95;;;1.90;;
54123;SDS011;55741;53.252;5.788;2022-08-18T12:11:48;4.63;;;1.85;;
54123;SDS011;55741;53.252;5.788;2022-08-18T12:14:23;3.72;;;1.98;;
54123;SDS011;55741;53.252;5.788;2022-08-18T12:16:51;2.70;;;1.67;;
54123;SDS011;55741;53.252;5.788;2022-08-18T12:19:17;6.18;;;1.80;;
54123;SDS011;55741;53.252;5.788;2022-08-18T12:21:44;3.30;;;1.70;;
54123;SDS011;55741;53.252;5.788;2022-08-18T12:24:31;3.33;;;1.90;;
54123;SDS011;55741;53.252;5.788;2022-08-18T12:26:58;4.05;;;1.95;;
54123;SDS011;55741;53.252;5.788;2022-08-18T12:29:24;5.13;;;1.83;;
54123;SDS011;55741;53.252;5.788;2022-08-18T12:31:52;5.22;;;2.42;;
54123;SDS011;55741;53.252;5.788;2022-08-18T12:34:20;5.03;;;2.00;;
54123;SDS011;55741;53.252;5.788;2022-08-18T12:36:55;4.57;;;1.90;;
54123;SDS011;55741;53.252;5.788;2022-08-18T12:39:23;2.95;;;1.70;;
54123;SDS011;55741;53.252;5.788;2022-08-18T12:41:49;3.45;;;2.10;;
54123;SDS011;55741;53.252;5.788;2022-08-18T12:44:15;3.08;;;1.88;;
54123;SDS011;55741;53.252;5.788;2022-08-18T12:46:41;4.53;;;1.70;;
54123;SDS011;55741;53.252;5.788;2022-08-18T12:49:14;5.88;;;1.83;;
54123;SDS011;55741;53.252;5.788;2022-08-18T12:51:42;4.60;;;2.20;;
54123;SDS011;55741;53.252;5.788;2022-08-18T12:54:09;3.95;;;1.80;;
54123;SDS011;55741;53.252;5.788;2022-08-18T12:56:35;3.33;;;2.00;;
54123;SDS011;55741;53.252;5.788;2022-08-18T12:59:03;4.80;;;2.00;;
54123;SDS011;55741;53.252;5.788;2022-08-18T13:01:31;5.55;;;1.90;;
54123;SDS011;55741;53.252;5.788;2022-08-18T13:03:58;5.75;;;2.40;;
54123;SDS011;55741;53.252;5.788;2022-08-18T13:06:25;4.15;;;1.80;;
54123;SDS011;55741;53.252;5.788;2022-08-18T13:08:51;5.45;;;2.17;;
54123;SDS011;55741;53.252;5.788;2022-08-18T13:11:20;3.08;;;1.70;;
54123;SDS011;55741;53.252;5.788;2022-08-18T13:13:47;3.60;;;1.85;;
54123;SDS011;55741;53.252;5.788;2022-08-18T13:16:13;3.63;;;1.92;;
54123;SDS011;55741;53.252;5.788;2022-08-18T13:18:39;4.22;;;1.90;;
54123;SDS011;55741;53.252;5.788;2022-08-18T13:21:07;4.10;;;1.92;;
54123;SDS011;55741;53.252;5.788;2022-08-18T13:23:34;5.50;;;2.30;;
54123;SDS011;55741;53.252;5.788;2022-08-18T13:26:01;4.45;;;2.22;;
54123;SDS011;55741;53.252;5.788;2022-08-18T13:28:30;5.63;;;2.33;;
54123;SDS011;55741;53.252;5.788;2022-08-18T13:30:57;3.65;;;2.05;;
54123;SDS011;55741;53.252;5.788;2022-08-18T13:33:22;4.75;;;2.13;;
54123;SDS011;55741;53.252;5.788;2022-08-18T13:35:49;5.80;;;2.47;;
54123;SDS011;55741;53.252;5.788;2022-08-18T13:38:16;4.70;;;1.90;;
54123;SDS011;55741;53.252;5.788;2022-08-18T13:40:45;4.13;;;1.85;;
54123;SDS011;55741;53.252;5.788;2022-08-18T13:43:15;3.97;;;2.10;;
54123;SDS011;55741;53.252;5.788;2022-08-18T13:45:45;4.78;;;2.28;;
54123;SDS011;55741;53.252;5.788;2022-08-18T13:48:14;3.65;;;2.00;;
54123;SDS011;55741;53.252;5.788;2022-08-18T13:50:41;5.03;;;1.95;;
54123;SDS011;55741;53.252;5.788;2022-08-18T13:53:10;5.13;;;1.90;;
54123;SDS011;55741;53.252;5.788;2022-08-18T13:55:46;5.30;;;2.08;;
54123;SDS011;55741;53.252;5.788;2022-08-18T13:58:12;4.80;;;1.85;;
54123;SDS011;55741;53.252;5.788;2022-08-18T14:00:39;3.47;;;2.20;;
54123;SDS011;55741;53.252;5.788;2022-08-18T14:03:06;4.65;;;2.10;;
54123;SDS011;55741;53.252;5.788;2022-08-18T14:05:32;4.38;;;2.38;;
54123;SDS011;55741;53.252;5.788;2022-08-18T14:07:58;4.90;;;2.08;;
54123;SDS011;55741;53.252;5.788;2022-08-18T14:10:24;4.45;;;2.58;;
54123;SDS011;55741;53.252;5.788;2022-08-18T14:12:52;5.30;;;2.10;;
54123;SDS011;55741;53.252;5.788;2022-08-18T14:15:20;8.02;;;2.85;;
54123;SDS011;55741;53.252;5.788;2022-08-18T14:17:47;5.95;;;2.30;;
54123;SDS011;55741;53.252;5.788;2022-08-18T14:20:13;5.72;;;2.53;;
54123;SDS011;55741;53.252;5.788;2022-08-18T14:22:59;3.63;;;1.77;;
54123;SDS011;55741;53.252;5.788;2022-08-18T14:25:44;5.45;;;2.30;;
54123;SDS011;55741;53.252;5.788;2022-08-18T14:28:29;6.18;;;2.20;;
54123;SDS011;55741;53.252;5.788;2022-08-18T14:30:57;4.43;;;2.40;;
54123;SDS011;55741;53.252;5.788;2022-08-18T14:33:26;4.03;;;1.88;;
54123;SDS011;55741;53.252;5.788;2022-08-18T14:35:52;4.90;;;2.05;;
54123;SDS011;55741;53.252;5.788;2022-08-18T14:38:18;4.80;;;2.22;;
54123;SDS011;55741;53.252;5.788;2022-08-18T14:40:47;4.10;;;2.20;;
54123;SDS011;55741;53.252;5.788;2022-08-18T14:43:14;5.60;;;2.53;;
54123;SDS011;55741;53.252;5.788;2022-08-18T14:45:42;5.40;;;2.05;;
54123;SDS011;55741;53.252;5.788;2022-08-18T14:48:12;6.07;;;2.47;;
54123;SDS011;55741;53.252;5.788;2022-08-18T14:50:39;6.03;;;2.00;;
54123;SDS011;55741;53.252;5.788;2022-08-18T14:53:06;5.55;;;2.03;;
54123;SDS011;55741;53.252;5.788;2022-08-18T14:55:32;4.65;;;2.10;;
54123;SDS011;55741;53.252;5.788;2022-08-18T14:57:58;3.80;;;2.05;;
54123;SDS011;55741;53.252;5.788;2022-08-18T15:00:25;4.60;;;2.10;;
54123;SDS011;55741;53.252;5.788;2022-08-18T15:02:51;6.97;;;2.38;;
54123;SDS011;55741;53.252;5.788;2022-08-18T15:05:17;3.97;;;1.90;;
54123;SDS011;55741;53.252;5.788;2022-08-18T15:07:43;5.35;;;2.80;;
54123;SDS011;55741;53.252;5.788;2022-08-18T15:10:11;4.78;;;2.33;;
54123;SDS011;55741;53.252;5.788;2022-08-18T15:12:38;5.30;;;2.30;;
54123;SDS011;55741;53.252;5.788;2022-08-18T15:15:04;3.58;;;2.03;;
54123;SDS011;55741;53.252;5.788;2022-08-18T15:17:32;5.65;;;2.15;;
54123;SDS011;55741;53.252;5.788;2022-08-18T15:20:03;5.18;;;2.05;;
54123;SDS011;55741;53.252;5.788;2022-08-18T15:22:39;6.85;;;1.92;;
54123;SDS011;55741;53.252;5.788;2022-08-18T15:25:25;7.15;;;2.13;;
54123;SDS011;55741;53.252;5.788;2022-08-18T15:28:10;3.55;;;2.00;;
54123;SDS011;55741;53.252;5.788;2022-08-18T15:30:36;3.83;;;1.88;;
54123;SDS011;55741;53.252;5.788;2022-08-18T15:33:03;5.38;;;2.13;;
54123;SDS011;55741;53.252;5.788;2022-08-18T15:35:30;6.30;;;1.98;;
54123;SDS011;55741;53.252;5.788;2022-08-18T15:37:56;6.57;;;2.30;;
54123;SDS011;55741;53.252;5.788;2022-08-18T15:40:25;6.15;;;2.10;;
54123;SDS011;55741;53.252;5.788;2022-08-18T15:42:55;4.05;;;2.30;;
54123;SDS011;55741;53.252;5.788;2022-08-18T15:45:29;5.57;;;2.22;;
54123;SDS011;55741;53.252;5.788;2022-08-18T15:47:59;4.73;;;2.40;;
54123;SDS011;55741;53.252;5.788;2022-08-18T15:50:26;5.75;;;2.30;;
54123;SDS011;55741;53.252;5.788;2022-08-18T15:52:53;7.82;;;2.70;;
54123;SDS011;55741;53.252;5.788;2022-08-18T15:55:26;6.28;;;2.38;;
54123;SDS011;55741;53.252;5.788;2022-08-18T15:57:53;6.82;;;2.40;;
54123;SDS011;55741;53.252;5.788;2022-08-18T16:00:20;6.55;;;2.72;;
54123;SDS011;55741;53.252;5.788;2022-08-18T16:02:49;4.10;;;2.20;;
54123;SDS011;55741;53.252;5.788;2022-08-18T16:05:22;7.18;;;2.53;;
54123;SDS011;55741;53.252;5.788;2022-08-18T16:07:50;6.95;;;2.22;;
54123;SDS011;55741;53.252;5.788;2022-08-18T16:10:18;5.90;;;2.30;;
54123;SDS011;55741;53.252;5.788;2022-08-18T16:12:45;6.30;;;2.63;;
54123;SDS011;55741;53.252;5.788;2022-08-18T16:15:16;4.65;;;2.47;;
54123;SDS011;55741;53.252;5.788;2022-08-18T16:17:43;6.30;;;2.13;;
54123;SDS011;55741;53.252;5.788;2022-08-18T16:20:11;6.38;;;2.40;;
54123;SDS011;55741;53.252;5.788;2022-08-18T16:22:38;5.82;;;2.35;;
54123;SDS011;55741;53.252;5.788;2022-08-18T16:25:05;5.97;;;2.72;;
54123;SDS011;55741;53.252;5.788;2022-08-18T16:27:33;5.43;;;2.42;;
54123;SDS011;55741;53.252;5.788;2022-08-18T16:29:59;7.43;;;2.38;;
54123;SDS011;55741;53.252;5.788;2022-08-18T16:32:29;6.90;;;2.45;;
54123;SDS011;55741;53.252;5.788;2022-08-18T16:34:56;7.60;;;2.50;;
54123;SDS011;55741;53.252;5.788;2022-08-18T16:37:23;9.10;;;2.38;;
54123;SDS011;55741;53.252;5.788;2022-08-18T16:39:51;6.45;;;2.20;;
54123;SDS011;55741;53.252;5.788;2022-08-18T16:42:18;5.47;;;2.28;;
54123;SDS011;55741;53.252;5.788;2022-08-18T16:44:46;5.10;;;2.28;;
54123;SDS011;55741;53.252;5.788;2022-08-18T16:47:12;8.43;;;2.30;;
54123;SDS011;55741;53.252;5.788;2022-08-18T16:49:38;7.18;;;2.63;;
54123;SDS011;55741;53.252;5.788;2022-08-18T16:52:04;5.03;;;2.15;;
54123;SDS011;55741;53.252;5.788;2022-08-18T16:54:31;8.52;;;2.28;;
54123;SDS011;55741;53.252;5.788;2022-08-18T16:56:58;4.32;;;2.35;;
54123;SDS011;55741;53.252;5.788;2022-08-18T16:59:24;8.05;;;2.20;;
54123;SDS011;55741;53.252;5.788;2022-08-18T17:02:08;5.30;;;2.10;;
54123;SDS011;55741;53.252;5.788;2022-08-18T17:04:52;9.77;;;2.40;;
54123;SDS011;55741;53.252;5.788;2022-08-18T17:07:18;7.45;;;2.60;;
54123;SDS011;55741;53.252;5.788;2022-08-18T17:09:44;7.50;;;2.22;;
54123;SDS011;55741;53.252;5.788;2022-08-18T17:12:10;8.60;;;2.47;;
54123;SDS011;55741;53.252;5.788;2022-08-18T17:14:36;7.88;;;2.80;;
54123;SDS011;55741;53.252;5.788;2022-08-18T17:17:02;6.40;;;2.50;;
54123;SDS011;55741;53.252;5.788;2022-08-18T17:19:30;6.40;;;2.58;;
54123;SDS011;55741;53.252;5.788;2022-08-18T17:21:58;7.43;;;2.47;;
54123;SDS011;55741;53.252;5.788;2022-08-18T17:24:28;6.28;;;2.30;;
54123;SDS011;55741;53.252;5.788;2022-08-18T17:29:30;7.20;;;2.22;;
54123;SDS011;55741;53.252;5.788;2022-08-18T17:32:01;5.55;;;2.15;;
54123;SDS011;55741;53.252;5.788;2022-08-18T17:34:37;6.75;;;2.33;;
54123;SDS011;55741;53.252;5.788;2022-08-18T17:37:08;8.45;;;2.38;;
54123;SDS011;55741;53.252;5.788;2022-08-18T17:39:38;4.60;;;2.15;;